createdAt,value
2018-12-23T00:00:55.068Z,60.28
2018-12-23T00:15:55.556Z,52.43
2018-12-23T00:30:52.460Z,61.53
2018-12-23T00:45:58.449Z,184.67
2018-12-23T01:00:51.622Z,183.75
2018-12-23T01:15:52.838Z,153.27
2018-12-23T01:30:51.660Z,172.68
2018-12-23T01:45:53.539Z,174.68
2018-12-23T02:00:52.909Z,142.32
2018-12-23T02:15:57.339Z,141.03
2018-12-23T02:30:53.378Z,125.82
2018-12-23T02:45:56.248Z,108.60
2018-12-23T03:00:51.208Z,111.08
2018-12-23T03:15:53.118Z,31.97
2018-12-23T03:30:51.458Z,4.60
2018-12-23T03:45:51.894Z,3.02
2018-12-23T04:00:51.492Z,2.20
2018-12-23T04:15:51.237Z,2.58
2018-12-23T04:30:52.420Z,2.90
2018-12-23T04:45:51.148Z,3.60
2018-12-23T05:00:53.608Z,4.00
2018-12-23T05:15:51.556Z,2.87
2018-12-23T05:30:56.622Z,3.17
2018-12-23T05:45:54.898Z,3.33
2018-12-23T06:00:50.895Z,3.40
2018-12-23T06:15:52.831Z,12.73
2018-12-23T06:30:51.577Z,12.75
2018-12-23T06:45:55.476Z,9.48
2018-12-23T07:00:50.862Z,8.10
2018-12-23T07:15:52.806Z,4.50
2018-12-23T07:30:51.720Z,4.55
2018-12-23T07:45:50.775Z,11.18
2018-12-23T08:00:51.010Z,5.90
2018-12-23T08:15:50.946Z,4.95
2018-12-23T08:30:51.409Z,5.50
2018-12-23T08:45:50.808Z,3.90
2018-12-23T09:00:51.221Z,3.60
2018-12-23T09:15:53.629Z,4.80
2018-12-23T09:30:51.124Z,4.60
2018-12-23T09:45:51.074Z,4.15
2018-12-23T10:00:52.186Z,3.98
2018-12-23T10:15:51.913Z,7.60
2018-12-23T10:30:51.691Z,6.62
2018-12-23T10:45:52.045Z,3.98
2018-12-23T11:00:51.173Z,3.55
2018-12-23T11:15:50.586Z,3.85
2018-12-23T11:30:51.405Z,6.00
2018-12-23T11:45:51.349Z,6.72
2018-12-23T12:00:50.838Z,5.22
2018-12-23T12:15:50.688Z,4.25
2018-12-23T12:30:50.619Z,5.90
2018-12-23T12:46:00.324Z,3.52
2018-12-23T13:00:57.137Z,4.62
2018-12-23T13:15:53.801Z,4.72
2018-12-23T13:30:50.961Z,4.60
2018-12-23T14:15:55.811Z,2.40
2018-12-23T14:30:51.700Z,3.95
2018-12-23T14:45:53.205Z,3.10
2018-12-23T15:00:50.667Z,2.90
2018-12-23T15:15:54.217Z,3.90
2018-12-23T15:30:54.097Z,4.35
2018-12-23T15:45:53.544Z,6.92
2018-12-23T16:00:51.390Z,6.42
2018-12-23T16:15:50.918Z,6.00
2018-12-23T16:30:51.241Z,5.30
2018-12-23T16:45:51.657Z,5.30
2018-12-23T17:00:53.194Z,9.75
2018-12-23T17:15:53.059Z,6.30
2018-12-23T17:30:50.459Z,6.17
2018-12-23T17:45:53.331Z,5.20
2018-12-23T18:01:00.249Z,5.08
2018-12-23T18:45:51.509Z,7.60
2018-12-23T19:00:57.926Z,11.80
2018-12-23T22:15:54.858Z,29.57
2018-12-23T22:30:54.899Z,29.25
2018-12-23T22:45:51.521Z,25.35
2018-12-23T23:00:53.607Z,26.05
2018-12-23T23:15:52.692Z,29.37
2018-12-23T23:30:54.239Z,26.73
2018-12-23T23:45:50.562Z,26.95
